sensor_id;sensor_type;location;lat;lon;timestamp;P1;durP1;ratioP1;P2;durP2;ratioP2
52614;SDS011;38508;53.158;6.614;2023-05-10T00:01:46;26.25;;;16.05;;
52614;SDS011;38508;53.158;6.614;2023-05-10T00:04:11;28.92;;;16.10;;
52614;SDS011;38508;53.158;6.614;2023-05-10T00:06:37;24.10;;;14.98;;
52614;SDS011;38508;53.158;6.614;2023-05-10T00:09:03;30.13;;;17.20;;
52614;SDS011;38508;53.158;6.614;2023-05-10T00:11:29;28.67;;;15.43;;
52614;SDS011;38508;53.158;6.614;2023-05-10T00:13:54;24.38;;;14.55;;
52614;SDS011;38508;53.158;6.614;2023-05-10T00:16:20;30.33;;;16.88;;
52614;SDS011;38508;53.158;6.614;2023-05-10T00:18:46;26.35;;;15.90;;
52614;SDS011;38508;53.158;6.614;2023-05-10T00:21:11;21.20;;;14.38;;
52614;SDS011;38508;53.158;6.614;2023-05-10T00:23:38;25.90;;;15.18;;
52614;SDS011;38508;53.158;6.614;2023-05-10T00:26:04;23.25;;;14.52;;
52614;SDS011;38508;53.158;6.614;2023-05-10T00:28:29;26.70;;;15.27;;
52614;SDS011;38508;53.158;6.614;2023-05-10T00:30:55;29.00;;;15.93;;
52614;SDS011;38508;53.158;6.614;2023-05-10T00:33:21;32.53;;;16.67;;
52614;SDS011;38508;53.158;6.614;2023-05-10T00:35:46;31.05;;;17.13;;
52614;SDS011;38508;53.158;6.614;2023-05-10T00:38:12;31.08;;;16.10;;
52614;SDS011;38508;53.158;6.614;2023-05-10T00:40:38;34.78;;;17.73;;
52614;SDS011;38508;53.158;6.614;2023-05-10T00:43:04;24.02;;;14.63;;
52614;SDS011;38508;53.158;6.614;2023-05-10T00:45:33;31.02;;;17.42;;
52614;SDS011;38508;53.158;6.614;2023-05-10T00:48:01;24.63;;;14.75;;
52614;SDS011;38508;53.158;6.614;2023-05-10T00:50:27;25.98;;;15.73;;
52614;SDS011;38508;53.158;6.614;2023-05-10T00:52:54;23.15;;;15.55;;
52614;SDS011;38508;53.158;6.614;2023-05-10T00:55:20;23.92;;;14.70;;
52614;SDS011;38508;53.158;6.614;2023-05-10T00:57:46;26.00;;;14.55;;
52614;SDS011;38508;53.158;6.614;2023-05-10T01:00:12;31.73;;;15.43;;
52614;SDS011;38508;53.158;6.614;2023-05-10T01:02:43;27.70;;;15.25;;
52614;SDS011;38508;53.158;6.614;2023-05-10T01:05:12;24.00;;;15.57;;
52614;SDS011;38508;53.158;6.614;2023-05-10T01:07:38;27.35;;;14.95;;
52614;SDS011;38508;53.158;6.614;2023-05-10T01:10:05;33.35;;;16.27;;
52614;SDS011;38508;53.158;6.614;2023-05-10T01:12:31;31.15;;;15.60;;
52614;SDS011;38508;53.158;6.614;2023-05-10T01:14:59;23.00;;;13.93;;
52614;SDS011;38508;53.158;6.614;2023-05-10T01:17:26;32.38;;;16.23;;
52614;SDS011;38508;53.158;6.614;2023-05-10T01:19:51;28.73;;;15.77;;
52614;SDS011;38508;53.158;6.614;2023-05-10T01:33:41;21.38;;;13.57;;
52614;SDS011;38508;53.158;6.614;2023-05-10T01:36:15;17.88;;;13.02;;
52614;SDS011;38508;53.158;6.614;2023-05-10T01:38:57;26.58;;;15.32;;
52614;SDS011;38508;53.158;6.614;2023-05-10T01:41:39;27.15;;;14.93;;
52614;SDS011;38508;53.158;6.614;2023-05-10T01:44:39;17.15;;;12.45;;
52614;SDS011;38508;53.158;6.614;2023-05-10T01:47:14;17.98;;;12.00;;
52614;SDS011;38508;53.158;6.614;2023-05-10T01:49:45;24.13;;;14.20;;
52614;SDS011;38508;53.158;6.614;2023-05-10T01:52:16;18.58;;;12.07;;
52614;SDS011;38508;53.158;6.614;2023-05-10T01:54:51;28.38;;;14.82;;
52614;SDS011;38508;53.158;6.614;2023-05-10T01:57:20;30.90;;;15.02;;
52614;SDS011;38508;53.158;6.614;2023-05-10T01:59:50;18.23;;;13.25;;
52614;SDS011;38508;53.158;6.614;2023-05-10T02:02:17;27.85;;;16.00;;
52614;SDS011;38508;53.158;6.614;2023-05-10T02:04:45;33.53;;;16.55;;
52614;SDS011;38508;53.158;6.614;2023-05-10T02:07:12;36.63;;;17.92;;
52614;SDS011;38508;53.158;6.614;2023-05-10T02:09:39;26.80;;;16.08;;
52614;SDS011;38508;53.158;6.614;2023-05-10T02:12:09;27.00;;;15.38;;
52614;SDS011;38508;53.158;6.614;2023-05-10T02:14:37;32.67;;;18.13;;
52614;SDS011;38508;53.158;6.614;2023-05-10T02:17:05;48.17;;;19.40;;
52614;SDS011;38508;53.158;6.614;2023-05-10T02:19:33;29.05;;;16.33;;
52614;SDS011;38508;53.158;6.614;2023-05-10T02:22:01;29.17;;;17.02;;
52614;SDS011;38508;53.158;6.614;2023-05-10T02:24:28;36.08;;;17.83;;
52614;SDS011;38508;53.158;6.614;2023-05-10T02:26:55;41.53;;;17.00;;
52614;SDS011;38508;53.158;6.614;2023-05-10T02:29:23;32.92;;;17.92;;
52614;SDS011;38508;53.158;6.614;2023-05-10T02:31:51;24.00;;;15.15;;
52614;SDS011;38508;53.158;6.614;2023-05-10T02:34:19;28.48;;;16.67;;
52614;SDS011;38508;53.158;6.614;2023-05-10T02:36:49;29.08;;;16.88;;
52614;SDS011;38508;53.158;6.614;2023-05-10T02:39:16;25.45;;;14.50;;
52614;SDS011;38508;53.158;6.614;2023-05-10T02:41:44;26.67;;;15.52;;
52614;SDS011;38508;53.158;6.614;2023-05-10T02:44:11;34.17;;;16.90;;
52614;SDS011;38508;53.158;6.614;2023-05-10T02:46:40;29.98;;;15.95;;
52614;SDS011;38508;53.158;6.614;2023-05-10T02:49:06;30.73;;;16.80;;
52614;SDS011;38508;53.158;6.614;2023-05-10T02:51:32;38.63;;;16.95;;
52614;SDS011;38508;53.158;6.614;2023-05-10T02:54:04;39.05;;;17.80;;
52614;SDS011;38508;53.158;6.614;2023-05-10T02:56:38;23.58;;;14.13;;
52614;SDS011;38508;53.158;6.614;2023-05-10T02:59:07;23.98;;;14.65;;
52614;SDS011;38508;53.158;6.614;2023-05-10T03:01:33;30.95;;;16.73;;
52614;SDS011;38508;53.158;6.614;2023-05-10T03:03:59;21.20;;;14.07;;
52614;SDS011;38508;53.158;6.614;2023-05-10T03:06:25;26.25;;;16.60;;
52614;SDS011;38508;53.158;6.614;2023-05-10T03:08:51;34.08;;;18.15;;
52614;SDS011;38508;53.158;6.614;2023-05-10T03:11:37;23.83;;;15.00;;
52614;SDS011;38508;53.158;6.614;2023-05-10T03:17:04;39.97;;;18.50;;
52614;SDS011;38508;53.158;6.614;2023-05-10T03:22:08;44.17;;;20.30;;
52614;SDS011;38508;53.158;6.614;2023-05-10T03:24:36;36.13;;;18.83;;
52614;SDS011;38508;53.158;6.614;2023-05-10T03:27:04;34.50;;;17.73;;
52614;SDS011;38508;53.158;6.614;2023-05-10T03:29:31;50.95;;;20.40;;
52614;SDS011;38508;53.158;6.614;2023-05-10T03:31:58;36.35;;;18.35;;
52614;SDS011;38508;53.158;6.614;2023-05-10T03:34:27;49.70;;;20.08;;
52614;SDS011;38508;53.158;6.614;2023-05-10T03:36:55;40.33;;;20.25;;
52614;SDS011;38508;53.158;6.614;2023-05-10T03:39:21;61.75;;;21.80;;
52614;SDS011;38508;53.158;6.614;2023-05-10T03:41:46;44.25;;;20.38;;
52614;SDS011;38508;53.158;6.614;2023-05-10T03:44:12;52.95;;;22.83;;
52614;SDS011;38508;53.158;6.614;2023-05-10T03:46:38;38.20;;;19.17;;
52614;SDS011;38508;53.158;6.614;2023-05-10T03:49:03;57.42;;;23.13;;
52614;SDS011;38508;53.158;6.614;2023-05-10T03:51:29;55.50;;;22.83;;
52614;SDS011;38508;53.158;6.614;2023-05-10T03:53:56;62.50;;;24.13;;
52614;SDS011;38508;53.158;6.614;2023-05-10T03:56:21;49.25;;;22.45;;
52614;SDS011;38508;53.158;6.614;2023-05-10T03:58:47;52.25;;;21.10;;
52614;SDS011;38508;53.158;6.614;2023-05-10T04:01:13;66.82;;;23.77;;
52614;SDS011;38508;53.158;6.614;2023-05-10T04:03:38;67.40;;;24.17;;
52614;SDS011;38508;53.158;6.614;2023-05-10T04:06:04;56.40;;;23.10;;
52614;SDS011;38508;53.158;6.614;2023-05-10T04:08:30;84.80;;;26.48;;
52614;SDS011;38508;53.158;6.614;2023-05-10T04:11:06;54.40;;;23.33;;
52614;SDS011;38508;53.158;6.614;2023-05-10T04:13:36;60.10;;;23.45;;
52614;SDS011;38508;53.158;6.614;2023-05-10T04:16:02;81.25;;;25.77;;
52614;SDS011;38508;53.158;6.614;2023-05-10T04:18:28;72.60;;;25.83;;
52614;SDS011;38508;53.158;6.614;2023-05-10T04:20:53;86.05;;;26.60;;
52614;SDS011;38508;53.158;6.614;2023-05-10T04:23:19;71.50;;;25.27;;
52614;SDS011;38508;53.158;6.614;2023-05-10T04:25:45;73.35;;;25.17;;
52614;SDS011;38508;53.158;6.614;2023-05-10T04:28:10;85.55;;;26.65;;
52614;SDS011;38508;53.158;6.614;2023-05-10T04:30:36;73.30;;;25.80;;
52614;SDS011;38508;53.158;6.614;2023-05-10T04:33:02;56.67;;;22.52;;
52614;SDS011;38508;53.158;6.614;2023-05-10T04:35:28;75.45;;;26.38;;
52614;SDS011;38508;53.158;6.614;2023-05-10T04:37:54;63.28;;;24.05;;
52614;SDS011;38508;53.158;6.614;2023-05-10T04:40:20;55.50;;;21.98;;
52614;SDS011;38508;53.158;6.614;2023-05-10T04:42:46;66.63;;;24.00;;
52614;SDS011;38508;53.158;6.614;2023-05-10T04:45:11;52.65;;;21.05;;
52614;SDS011;38508;53.158;6.614;2023-05-10T04:47:37;54.58;;;22.15;;
52614;SDS011;38508;53.158;6.614;2023-05-10T04:50:03;42.13;;;19.17;;
52614;SDS011;38508;53.158;6.614;2023-05-10T04:52:29;47.88;;;20.10;;
52614;SDS011;38508;53.158;6.614;2023-05-10T04:54:55;43.83;;;17.65;;
52614;SDS011;38508;53.158;6.614;2023-05-10T04:57:21;45.90;;;17.65;;
52614;SDS011;38508;53.158;6.614;2023-05-10T04:59:46;29.35;;;13.93;;
52614;SDS011;38508;53.158;6.614;2023-05-10T05:02:12;34.90;;;14.55;;
52614;SDS011;38508;53.158;6.614;2023-05-10T05:04:38;28.15;;;12.82;;
52614;SDS011;38508;53.158;6.614;2023-05-10T05:07:04;16.17;;;9.68;;
52614;SDS011;38508;53.158;6.614;2023-05-10T05:09:29;17.23;;;9.80;;
52614;SDS011;38508;53.158;6.614;2023-05-10T05:11:57;19.27;;;10.07;;
52614;SDS011;38508;53.158;6.614;2023-05-10T05:14:23;19.77;;;10.23;;
52614;SDS011;38508;53.158;6.614;2023-05-10T05:16:50;16.10;;;9.48;;
52614;SDS011;38508;53.158;6.614;2023-05-10T05:19:16;12.75;;;8.18;;
52614;SDS011;38508;53.158;6.614;2023-05-10T05:21:42;19.92;;;9.93;;
52614;SDS011;38508;53.158;6.614;2023-05-10T05:24:08;17.65;;;10.15;;
52614;SDS011;38508;53.158;6.614;2023-05-10T05:26:35;12.48;;;8.48;;
52614;SDS011;38508;53.158;6.614;2023-05-10T05:29:01;15.15;;;8.60;;
52614;SDS011;38508;53.158;6.614;2023-05-10T05:31:27;13.73;;;8.45;;
52614;SDS011;38508;53.158;6.614;2023-05-10T05:33:53;18.42;;;9.98;;
52614;SDS011;38508;53.158;6.614;2023-05-10T05:36:19;17.20;;;9.40;;
52614;SDS011;38508;53.158;6.614;2023-05-10T05:38:45;22.80;;;11.13;;
52614;SDS011;38508;53.158;6.614;2023-05-10T05:41:10;18.33;;;9.77;;
52614;SDS011;38508;53.158;6.614;2023-05-10T05:43:36;16.13;;;9.75;;
52614;SDS011;38508;53.158;6.614;2023-05-10T05:46:02;16.90;;;9.13;;
52614;SDS011;38508;53.158;6.614;2023-05-10T05:48:29;15.48;;;8.52;;
52614;SDS011;38508;53.158;6.614;2023-05-10T05:50:55;17.50;;;9.15;;
52614;SDS011;38508;53.158;6.614;2023-05-10T05:53:21;19.15;;;9.68;;
52614;SDS011;38508;53.158;6.614;2023-05-10T05:55:53;18.15;;;9.85;;
52614;SDS011;38508;53.158;6.614;2023-05-10T05:58:20;15.75;;;8.93;;
52614;SDS011;38508;53.158;6.614;2023-05-10T06:00:46;18.23;;;9.10;;
52614;SDS011;38508;53.158;6.614;2023-05-10T06:03:12;18.13;;;9.80;;
52614;SDS011;38508;53.158;6.614;2023-05-10T06:05:38;18.67;;;9.68;;
52614;SDS011;38508;53.158;6.614;2023-05-10T06:08:04;22.85;;;10.95;;
52614;SDS011;38508;53.158;6.614;2023-05-10T06:10:29;22.75;;;11.18;;
52614;SDS011;38508;53.158;6.614;2023-05-10T06:12:55;22.75;;;11.05;;
52614;SDS011;38508;53.158;6.614;2023-05-10T06:15:21;25.50;;;10.57;;
52614;SDS011;38508;53.158;6.614;2023-05-10T06:17:47;24.42;;;9.77;;
52614;SDS011;38508;53.158;6.614;2023-05-10T06:20:14;17.40;;;8.85;;
52614;SDS011;38508;53.158;6.614;2023-05-10T06:22:40;24.58;;;10.45;;
52614;SDS011;38508;53.158;6.614;2023-05-10T06:25:06;13.57;;;7.78;;
52614;SDS011;38508;53.158;6.614;2023-05-10T06:27:33;13.95;;;7.07;;
52614;SDS011;38508;53.158;6.614;2023-05-10T06:29:59;13.52;;;7.03;;
52614;SDS011;38508;53.158;6.614;2023-05-10T06:32:24;14.80;;;6.40;;
52614;SDS011;38508;53.158;6.614;2023-05-10T06:34:50;14.10;;;6.97;;
52614;SDS011;38508;53.158;6.614;2023-05-10T06:37:16;13.75;;;7.45;;
52614;SDS011;38508;53.158;6.614;2023-05-10T06:39:41;18.58;;;7.50;;
52614;SDS011;38508;53.158;6.614;2023-05-10T06:42:07;13.73;;;6.63;;
52614;SDS011;38508;53.158;6.614;2023-05-10T06:44:33;19.55;;;7.97;;
52614;SDS011;38508;53.158;6.614;2023-05-10T06:46:59;23.77;;;9.05;;
52614;SDS011;38508;53.158;6.614;2023-05-10T06:49:24;26.08;;;9.98;;
52614;SDS011;38508;53.158;6.614;2023-05-10T06:51:50;23.85;;;10.27;;
52614;SDS011;38508;53.158;6.614;2023-05-10T06:54:15;22.85;;;10.77;;
52614;SDS011;38508;53.158;6.614;2023-05-10T06:56:41;33.38;;;13.63;;
52614;SDS011;38508;53.158;6.614;2023-05-10T06:59:07;26.48;;;12.52;;
52614;SDS011;38508;53.158;6.614;2023-05-10T07:01:32;42.97;;;15.10;;
52614;SDS011;38508;53.158;6.614;2023-05-10T07:03:58;48.03;;;16.33;;
52614;SDS011;38508;53.158;6.614;2023-05-10T07:06:24;44.80;;;16.15;;
52614;SDS011;38508;53.158;6.614;2023-05-10T07:08:50;60.22;;;18.48;;
52614;SDS011;38508;53.158;6.614;2023-05-10T07:11:15;31.67;;;13.15;;
52614;SDS011;38508;53.158;6.614;2023-05-10T07:13:41;25.38;;;10.25;;
52614;SDS011;38508;53.158;6.614;2023-05-10T07:16:09;17.35;;;8.38;;
52614;SDS011;38508;53.158;6.614;2023-05-10T07:18:35;16.35;;;7.50;;
52614;SDS011;38508;53.158;6.614;2023-05-10T07:21:01;13.23;;;6.43;;
52614;SDS011;38508;53.158;6.614;2023-05-10T07:23:27;17.50;;;7.60;;
52614;SDS011;38508;53.158;6.614;2023-05-10T07:25:53;9.43;;;5.38;;
52614;SDS011;38508;53.158;6.614;2023-05-10T07:28:18;9.50;;;5.50;;
52614;SDS011;38508;53.158;6.614;2023-05-10T07:30:45;13.50;;;6.20;;
52614;SDS011;38508;53.158;6.614;2023-05-10T07:33:12;11.18;;;6.22;;
52614;SDS011;38508;53.158;6.614;2023-05-10T07:35:39;9.02;;;5.25;;
52614;SDS011;38508;53.158;6.614;2023-05-10T07:38:04;9.63;;;5.60;;
52614;SDS011;38508;53.158;6.614;2023-05-10T07:40:30;12.13;;;6.18;;
52614;SDS011;38508;53.158;6.614;2023-05-10T07:42:56;11.05;;;6.60;;
52614;SDS011;38508;53.158;6.614;2023-05-10T07:45:22;10.13;;;6.15;;
52614;SDS011;38508;53.158;6.614;2023-05-10T07:47:48;11.88;;;6.60;;
52614;SDS011;38508;53.158;6.614;2023-05-10T07:50:14;11.82;;;7.00;;
52614;SDS011;38508;53.158;6.614;2023-05-10T07:52:40;11.07;;;7.00;;
52614;SDS011;38508;53.158;6.614;2023-05-10T07:55:06;10.32;;;6.90;;
52614;SDS011;38508;53.158;6.614;2023-05-10T07:57:33;11.02;;;7.78;;
52614;SDS011;38508;53.158;6.614;2023-05-10T07:59:59;10.57;;;6.93;;
52614;SDS011;38508;53.158;6.614;2023-05-10T08:02:25;10.50;;;7.05;;
52614;SDS011;38508;53.158;6.614;2023-05-10T08:04:51;8.45;;;6.30;;
52614;SDS011;38508;53.158;6.614;2023-05-10T08:07:17;11.63;;;8.15;;
52614;SDS011;38508;53.158;6.614;2023-05-10T08:09:42;9.35;;;6.60;;
52614;SDS011;38508;53.158;6.614;2023-05-10T08:12:08;11.07;;;7.50;;
52614;SDS011;38508;53.158;6.614;2023-05-10T08:14:34;11.20;;;7.78;;
52614;SDS011;38508;53.158;6.614;2023-05-10T08:17:01;10.18;;;6.88;;
52614;SDS011;38508;53.158;6.614;2023-05-10T08:19:28;10.85;;;6.80;;
52614;SDS011;38508;53.158;6.614;2023-05-10T08:21:54;12.55;;;8.80;;
52614;SDS011;38508;53.158;6.614;2023-05-10T08:24:21;9.57;;;6.75;;
52614;SDS011;38508;53.158;6.614;2023-05-10T08:26:47;10.50;;;7.30;;
52614;SDS011;38508;53.158;6.614;2023-05-10T08:29:13;8.90;;;6.63;;
52614;SDS011;38508;53.158;6.614;2023-05-10T08:31:39;12.98;;;8.25;;
52614;SDS011;38508;53.158;6.614;2023-05-10T08:34:04;9.18;;;6.70;;
52614;SDS011;38508;53.158;6.614;2023-05-10T08:36:30;11.43;;;7.15;;
52614;SDS011;38508;53.158;6.614;2023-05-10T08:38:57;13.45;;;8.07;;
52614;SDS011;38508;53.158;6.614;2023-05-10T08:41:23;11.55;;;7.65;;
52614;SDS011;38508;53.158;6.614;2023-05-10T08:43:51;9.90;;;7.55;;
52614;SDS011;38508;53.158;6.614;2023-05-10T08:46:18;10.23;;;7.05;;
52614;SDS011;38508;53.158;6.614;2023-05-10T08:48:46;9.95;;;6.30;;
52614;SDS011;38508;53.158;6.614;2023-05-10T08:51:13;10.00;;;6.47;;
52614;SDS011;38508;53.158;6.614;2023-05-10T08:53:41;8.95;;;7.03;;
52614;SDS011;38508;53.158;6.614;2023-05-10T08:56:07;9.35;;;6.90;;
52614;SDS011;38508;53.158;6.614;2023-05-10T08:58:33;10.88;;;7.13;;
52614;SDS011;38508;53.158;6.614;2023-05-10T09:00:59;12.95;;;7.80;;
52614;SDS011;38508;53.158;6.614;2023-05-10T09:03:26;12.25;;;8.25;;
52614;SDS011;38508;53.158;6.614;2023-05-10T09:05:51;13.27;;;8.85;;
52614;SDS011;38508;53.158;6.614;2023-05-10T09:08:17;11.48;;;8.55;;
52614;SDS011;38508;53.158;6.614;2023-05-10T09:10:44;13.35;;;8.13;;
52614;SDS011;38508;53.158;6.614;2023-05-10T09:13:12;12.65;;;8.80;;
52614;SDS011;38508;53.158;6.614;2023-05-10T09:15:40;16.52;;;9.25;;
52614;SDS011;38508;53.158;6.614;2023-05-10T09:18:06;19.95;;;10.10;;
52614;SDS011;38508;53.158;6.614;2023-05-10T09:20:32;14.05;;;9.18;;
52614;SDS011;38508;53.158;6.614;2023-05-10T09:22:57;15.00;;;9.63;;
52614;SDS011;38508;53.158;6.614;2023-05-10T09:25:23;15.75;;;10.00;;
52614;SDS011;38508;53.158;6.614;2023-05-10T09:27:49;17.77;;;11.45;;
52614;SDS011;38508;53.158;6.614;2023-05-10T09:30:33;16.73;;;10.05;;
52614;SDS011;38508;53.158;6.614;2023-05-10T09:32:58;13.50;;;9.48;;
52614;SDS011;38508;53.158;6.614;2023-05-10T09:35:26;14.45;;;9.57;;
52614;SDS011;38508;53.158;6.614;2023-05-10T09:37:53;12.27;;;9.00;;
52614;SDS011;38508;53.158;6.614;2023-05-10T09:40:20;14.70;;;9.15;;
52614;SDS011;38508;53.158;6.614;2023-05-10T09:42:51;16.73;;;9.65;;
52614;SDS011;38508;53.158;6.614;2023-05-10T09:45:22;13.55;;;8.35;;
52614;SDS011;38508;53.158;6.614;2023-05-10T09:47:49;13.52;;;8.02;;
52614;SDS011;38508;53.158;6.614;2023-05-10T09:50:15;9.60;;;7.25;;
52614;SDS011;38508;53.158;6.614;2023-05-10T09:55:14;13.13;;;7.60;;
52614;SDS011;38508;53.158;6.614;2023-05-10T09:57:40;13.35;;;8.32;;
52614;SDS011;38508;53.158;6.614;2023-05-10T10:00:06;13.90;;;8.00;;
52614;SDS011;38508;53.158;6.614;2023-05-10T10:02:34;11.63;;;7.55;;
52614;SDS011;38508;53.158;6.614;2023-05-10T10:05:01;14.35;;;8.55;;
52614;SDS011;38508;53.158;6.614;2023-05-10T10:07:31;14.93;;;8.75;;
52614;SDS011;38508;53.158;6.614;2023-05-10T10:09:58;13.93;;;9.30;;
52614;SDS011;38508;53.158;6.614;2023-05-10T10:12:24;13.07;;;9.18;;
52614;SDS011;38508;53.158;6.614;2023-05-10T10:14:50;15.52;;;9.40;;
52614;SDS011;38508;53.158;6.614;2023-05-10T10:17:17;13.48;;;8.30;;
52614;SDS011;38508;53.158;6.614;2023-05-10T10:19:44;12.93;;;8.77;;
52614;SDS011;38508;53.158;6.614;2023-05-10T10:22:11;18.75;;;8.88;;
52614;SDS011;38508;53.158;6.614;2023-05-10T10:24:37;17.23;;;9.05;;
52614;SDS011;38508;53.158;6.614;2023-05-10T10:27:24;18.17;;;9.43;;
52614;SDS011;38508;53.158;6.614;2023-05-10T10:29:59;13.60;;;9.05;;
52614;SDS011;38508;53.158;6.614;2023-05-10T10:35:31;16.67;;;9.82;;
52614;SDS011;38508;53.158;6.614;2023-05-10T10:37:57;19.00;;;10.65;;
52614;SDS011;38508;53.158;6.614;2023-05-10T10:43:21;13.68;;;8.27;;
52614;SDS011;38508;53.158;6.614;2023-05-10T10:51:38;13.07;;;7.55;;
52614;SDS011;38508;53.158;6.614;2023-05-10T10:54:10;9.90;;;6.75;;
52614;SDS011;38508;53.158;6.614;2023-05-10T10:56:36;12.23;;;7.70;;
52614;SDS011;38508;53.158;6.614;2023-05-10T10:59:02;11.98;;;7.10;;
52614;SDS011;38508;53.158;6.614;2023-05-10T11:01:32;9.23;;;6.30;;
52614;SDS011;38508;53.158;6.614;2023-05-10T11:06:32;9.43;;;6.68;;
52614;SDS011;38508;53.158;6.614;2023-05-10T11:08:59;10.82;;;7.82;;
52614;SDS011;38508;53.158;6.614;2023-05-10T11:11:31;10.77;;;7.15;;
52614;SDS011;38508;53.158;6.614;2023-05-10T11:14:02;12.10;;;8.30;;
52614;SDS011;38508;53.158;6.614;2023-05-10T11:16:29;10.35;;;7.43;;
52614;SDS011;38508;53.158;6.614;2023-05-10T11:19:07;12.13;;;7.97;;
52614;SDS011;38508;53.158;6.614;2023-05-10T11:24:29;10.38;;;7.35;;
52614;SDS011;38508;53.158;6.614;2023-05-10T11:26:54;11.20;;;8.02;;
52614;SDS011;38508;53.158;6.614;2023-05-10T11:29:21;9.95;;;7.10;;
52614;SDS011;38508;53.158;6.614;2023-05-10T11:31:47;10.60;;;7.55;;
52614;SDS011;38508;53.158;6.614;2023-05-10T11:34:27;10.13;;;7.68;;
52614;SDS011;38508;53.158;6.614;2023-05-10T11:37:03;12.63;;;7.70;;
52614;SDS011;38508;53.158;6.614;2023-05-10T11:39:31;11.10;;;7.63;;
52614;SDS011;38508;53.158;6.614;2023-05-10T11:41:58;11.13;;;7.22;;
52614;SDS011;38508;53.158;6.614;2023-05-10T11:44:31;12.55;;;7.63;;
52614;SDS011;38508;53.158;6.614;2023-05-10T11:46:58;10.38;;;7.43;;
52614;SDS011;38508;53.158;6.614;2023-05-10T11:49:25;10.68;;;7.00;;
52614;SDS011;38508;53.158;6.614;2023-05-10T11:51:51;15.02;;;8.23;;
52614;SDS011;38508;53.158;6.614;2023-05-10T11:54:16;12.93;;;8.32;;
52614;SDS011;38508;53.158;6.614;2023-05-10T11:56:42;13.25;;;8.23;;
52614;SDS011;38508;53.158;6.614;2023-05-10T11:59:08;16.10;;;9.13;;
52614;SDS011;38508;53.158;6.614;2023-05-10T12:01:34;16.25;;;9.57;;
52614;SDS011;38508;53.158;6.614;2023-05-10T12:04:00;14.23;;;8.98;;
52614;SDS011;38508;53.158;6.614;2023-05-10T12:06:27;14.30;;;9.00;;
52614;SDS011;38508;53.158;6.614;2023-05-10T12:08:54;14.45;;;8.13;;
52614;SDS011;38508;53.158;6.614;2023-05-10T12:11:20;15.90;;;9.25;;
52614;SDS011;38508;53.158;6.614;2023-05-10T12:13:50;17.13;;;8.93;;
52614;SDS011;38508;53.158;6.614;2023-05-10T12:16:17;12.75;;;7.82;;
52614;SDS011;38508;53.158;6.614;2023-05-10T12:18:45;12.60;;;7.45;;
52614;SDS011;38508;53.158;6.614;2023-05-10T12:21:13;11.70;;;8.27;;
52614;SDS011;38508;53.158;6.614;2023-05-10T12:23:40;12.82;;;8.23;;
52614;SDS011;38508;53.158;6.614;2023-05-10T12:26:06;13.90;;;8.98;;
52614;SDS011;38508;53.158;6.614;2023-05-10T12:28:35;12.32;;;8.00;;
52614;SDS011;38508;53.158;6.614;2023-05-10T12:31:01;15.80;;;8.50;;
52614;SDS011;38508;53.158;6.614;2023-05-10T12:33:27;13.25;;;7.25;;
52614;SDS011;38508;53.158;6.614;2023-05-10T12:36:04;10.95;;;7.15;;
52614;SDS011;38508;53.158;6.614;2023-05-10T12:38:34;11.00;;;7.00;;
52614;SDS011;38508;53.158;6.614;2023-05-10T12:41:04;10.85;;;6.60;;
52614;SDS011;38508;53.158;6.614;2023-05-10T12:43:34;13.77;;;6.50;;
52614;SDS011;38508;53.158;6.614;2023-05-10T12:46:10;10.02;;;6.85;;
52614;SDS011;38508;53.158;6.614;2023-05-10T12:48:38;11.15;;;6.95;;
52614;SDS011;38508;53.158;6.614;2023-05-10T12:51:04;13.70;;;8.30;;
52614;SDS011;38508;53.158;6.614;2023-05-10T12:53:33;14.45;;;8.70;;
52614;SDS011;38508;53.158;6.614;2023-05-10T12:55:59;14.27;;;8.07;;
52614;SDS011;38508;53.158;6.614;2023-05-10T12:58:25;11.63;;;7.43;;
52614;SDS011;38508;53.158;6.614;2023-05-10T13:00:50;13.30;;;8.00;;
52614;SDS011;38508;53.158;6.614;2023-05-10T13:03:16;11.38;;;7.85;;
52614;SDS011;38508;53.158;6.614;2023-05-10T13:05:42;12.70;;;7.50;;
52614;SDS011;38508;53.158;6.614;2023-05-10T13:08:08;15.43;;;7.78;;
52614;SDS011;38508;53.158;6.614;2023-05-10T13:10:34;15.20;;;7.93;;
52614;SDS011;38508;53.158;6.614;2023-05-10T13:13:00;13.50;;;7.93;;
52614;SDS011;38508;53.158;6.614;2023-05-10T13:15:26;14.75;;;8.05;;
52614;SDS011;38508;53.158;6.614;2023-05-10T13:17:52;13.85;;;8.70;;
52614;SDS011;38508;53.158;6.614;2023-05-10T13:20:19;16.83;;;8.65;;
52614;SDS011;38508;53.158;6.614;2023-05-10T13:22:44;15.15;;;7.95;;
52614;SDS011;38508;53.158;6.614;2023-05-10T13:25:10;13.75;;;8.05;;
52614;SDS011;38508;53.158;6.614;2023-05-10T13:27:37;11.65;;;7.18;;
52614;SDS011;38508;53.158;6.614;2023-05-10T13:30:04;15.25;;;7.47;;
52614;SDS011;38508;53.158;6.614;2023-05-10T13:32:30;13.65;;;7.75;;
52614;SDS011;38508;53.158;6.614;2023-05-10T13:34:56;12.43;;;7.32;;
52614;SDS011;38508;53.158;6.614;2023-05-10T13:37:22;15.32;;;8.15;;
52614;SDS011;38508;53.158;6.614;2023-05-10T13:39:48;11.38;;;6.85;;
52614;SDS011;38508;53.158;6.614;2023-05-10T13:42:13;13.68;;;7.80;;
52614;SDS011;38508;53.158;6.614;2023-05-10T13:44:39;12.18;;;7.90;;
52614;SDS011;38508;53.158;6.614;2023-05-10T13:47:05;14.65;;;8.73;;
52614;SDS011;38508;53.158;6.614;2023-05-10T13:49:31;15.18;;;9.38;;
52614;SDS011;38508;53.158;6.614;2023-05-10T13:51:57;16.58;;;10.02;;
52614;SDS011;38508;53.158;6.614;2023-05-10T13:54:23;14.63;;;9.43;;
52614;SDS011;38508;53.158;6.614;2023-05-10T13:56:49;14.20;;;8.40;;
52614;SDS011;38508;53.158;6.614;2023-05-10T13:59:14;14.88;;;9.50;;
52614;SDS011;38508;53.158;6.614;2023-05-10T14:01:41;14.65;;;8.75;;
52614;SDS011;38508;53.158;6.614;2023-05-10T14:04:08;15.05;;;9.13;;
52614;SDS011;38508;53.158;6.614;2023-05-10T14:06:36;12.98;;;8.82;;
52614;SDS011;38508;53.158;6.614;2023-05-10T14:09:02;15.00;;;9.10;;
52614;SDS011;38508;53.158;6.614;2023-05-10T14:11:28;12.80;;;8.98;;
52614;SDS011;38508;53.158;6.614;2023-05-10T14:13:54;18.88;;;9.95;;
52614;SDS011;38508;53.158;6.614;2023-05-10T14:16:20;12.15;;;8.23;;
52614;SDS011;38508;53.158;6.614;2023-05-10T14:18:46;14.90;;;9.07;;
52614;SDS011;38508;53.158;6.614;2023-05-10T14:21:12;16.10;;;9.52;;
52614;SDS011;38508;53.158;6.614;2023-05-10T14:23:38;14.70;;;8.93;;
52614;SDS011;38508;53.158;6.614;2023-05-10T14:26:04;16.15;;;10.27;;
52614;SDS011;38508;53.158;6.614;2023-05-10T14:28:30;17.48;;;9.13;;
52614;SDS011;38508;53.158;6.614;2023-05-10T14:30:55;16.55;;;9.55;;
52614;SDS011;38508;53.158;6.614;2023-05-10T14:33:21;14.50;;;9.30;;
52614;SDS011;38508;53.158;6.614;2023-05-10T14:35:47;15.77;;;9.60;;
52614;SDS011;38508;53.158;6.614;2023-05-10T14:38:13;15.55;;;9.55;;
52614;SDS011;38508;53.158;6.614;2023-05-10T14:40:39;13.88;;;8.98;;
52614;SDS011;38508;53.158;6.614;2023-05-10T14:43:05;12.55;;;8.65;;
52614;SDS011;38508;53.158;6.614;2023-05-10T14:45:31;16.40;;;9.05;;
52614;SDS011;38508;53.158;6.614;2023-05-10T14:47:57;12.88;;;7.85;;
52614;SDS011;38508;53.158;6.614;2023-05-10T14:50:22;14.13;;;8.30;;
52614;SDS011;38508;53.158;6.614;2023-05-10T14:52:48;13.35;;;8.07;;
52614;SDS011;38508;53.158;6.614;2023-05-10T14:55:15;12.50;;;7.68;;
52614;SDS011;38508;53.158;6.614;2023-05-10T14:57:41;11.85;;;7.93;;
52614;SDS011;38508;53.158;6.614;2023-05-10T15:00:07;10.93;;;7.45;;
52614;SDS011;38508;53.158;6.614;2023-05-10T15:02:33;11.27;;;6.78;;
52614;SDS011;38508;53.158;6.614;2023-05-10T15:04:58;13.88;;;8.43;;
52614;SDS011;38508;53.158;6.614;2023-05-10T15:07:24;13.88;;;8.77;;